sensor_id;sensor_type;location;lat;lon;timestamp;temperature;humidity
15143;DHT22;7672;50.834;6.286;2024-03-06T00:01:58;8.00;99.90
15143;DHT22;7672;50.834;6.286;2024-03-06T00:04:25;8.30;99.90
15143;DHT22;7672;50.834;6.286;2024-03-06T00:06:52;7.90;99.90
15143;DHT22;7672;50.834;6.286;2024-03-06T00:09:22;7.90;99.90
15143;DHT22;7672;50.834;6.286;2024-03-06T00:11:49;7.90;99.90
15143;DHT22;7672;50.834;6.286;2024-03-06T00:14:20;7.90;99.90
15143;DHT22;7672;50.834;6.286;2024-03-06T00:16:49;7.80;99.90
15143;DHT22;7672;50.834;6.286;2024-03-06T00:19:17;7.80;99.90
15143;DHT22;7672;50.834;6.286;2024-03-06T00:21:45;7.80;99.90
15143;DHT22;7672;50.834;6.286;2024-03-06T00:24:12;7.70;99.90
15143;DHT22;7672;50.834;6.286;2024-03-06T00:26:41;7.70;99.90
15143;DHT22;7672;50.834;6.286;2024-03-06T00:29:09;7.60;99.90
15143;DHT22;7672;50.834;6.286;2024-03-06T00:31:36;7.60;99.90
15143;DHT22;7672;50.834;6.286;2024-03-06T00:34:10;7.60;99.90
15143;DHT22;7672;50.834;6.286;2024-03-06T00:36:38;7.50;99.90
15143;DHT22;7672;50.834;6.286;2024-03-06T00:39:04;7.50;99.90
15143;DHT22;7672;50.834;6.286;2024-03-06T00:41:32;7.50;99.90
15143;DHT22;7672;50.834;6.286;2024-03-06T00:43:59;7.50;99.90
15143;DHT22;7672;50.834;6.286;2024-03-06T00:46:26;7.40;99.90
15143;DHT22;7672;50.834;6.286;2024-03-06T00:48:53;7.40;99.90
15143;DHT22;7672;50.834;6.286;2024-03-06T00:51:20;7.40;99.90
15143;DHT22;7672;50.834;6.286;2024-03-06T00:54:03;7.30;99.90
15143;DHT22;7672;50.834;6.286;2024-03-06T00:56:31;7.30;99.90
15143;DHT22;7672;50.834;6.286;2024-03-06T00:58:58;7.30;99.90
15143;DHT22;7672;50.834;6.286;2024-03-06T01:01:25;7.20;99.90
15143;DHT22;7672;50.834;6.286;2024-03-06T01:03:54;7.20;99.90
15143;DHT22;7672;50.834;6.286;2024-03-06T01:06:22;7.20;99.90
15143;DHT22;7672;50.834;6.286;2024-03-06T01:08:49;7.20;99.90
15143;DHT22;7672;50.834;6.286;2024-03-06T01:11:16;7.20;99.90
15143;DHT22;7672;50.834;6.286;2024-03-06T01:13:43;7.20;99.90
15143;DHT22;7672;50.834;6.286;2024-03-06T01:16:10;7.20;99.90
15143;DHT22;7672;50.834;6.286;2024-03-06T01:18:37;7.20;99.90
15143;DHT22;7672;50.834;6.286;2024-03-06T01:21:04;7.20;99.90
15143;DHT22;7672;50.834;6.286;2024-03-06T01:23:31;7.20;99.90
15143;DHT22;7672;50.834;6.286;2024-03-06T01:25:58;7.20;99.90
15143;DHT22;7672;50.834;6.286;2024-03-06T01:28:25;7.20;99.90
15143;DHT22;7672;50.834;6.286;2024-03-06T01:30:53;7.20;99.90
15143;DHT22;7672;50.834;6.286;2024-03-06T01:33:20;7.20;99.90
15143;DHT22;7672;50.834;6.286;2024-03-06T01:35:47;7.20;99.90
15143;DHT22;7672;50.834;6.286;2024-03-06T01:38:14;7.20;99.90
15143;DHT22;7672;50.834;6.286;2024-03-06T01:40:43;7.10;99.90
15143;DHT22;7672;50.834;6.286;2024-03-06T01:43:25;7.10;99.90
15143;DHT22;7672;50.834;6.286;2024-03-06T01:45:54;7.10;99.90
15143;DHT22;7672;50.834;6.286;2024-03-06T01:48:23;7.10;99.90
15143;DHT22;7672;50.834;6.286;2024-03-06T01:50:56;7.10;99.90
15143;DHT22;7672;50.834;6.286;2024-03-06T01:53:26;7.10;99.90
15143;DHT22;7672;50.834;6.286;2024-03-06T01:55:54;7.00;99.90
15143;DHT22;7672;50.834;6.286;2024-03-06T01:58:23;7.20;99.90
15143;DHT22;7672;50.834;6.286;2024-03-06T02:00:51;7.00;99.90
15143;DHT22;7672;50.834;6.286;2024-03-06T02:03:20;6.90;99.90
15143;DHT22;7672;50.834;6.286;2024-03-06T02:05:49;6.90;99.90
15143;DHT22;7672;50.834;6.286;2024-03-06T02:08:17;6.90;99.90
15143;DHT22;7672;50.834;6.286;2024-03-06T02:10:45;6.80;99.90
15143;DHT22;7672;50.834;6.286;2024-03-06T02:13:13;7.00;99.90
15143;DHT22;7672;50.834;6.286;2024-03-06T02:15:41;6.80;99.90
15143;DHT22;7672;50.834;6.286;2024-03-06T02:18:10;6.80;99.90
15143;DHT22;7672;50.834;6.286;2024-03-06T02:20:38;6.80;99.90
15143;DHT22;7672;50.834;6.286;2024-03-06T02:23:08;6.80;99.90
15143;DHT22;7672;50.834;6.286;2024-03-06T02:25:35;6.80;99.90
15143;DHT22;7672;50.834;6.286;2024-03-06T02:28:03;6.70;99.90
15143;DHT22;7672;50.834;6.286;2024-03-06T02:30:50;6.70;99.90
15143;DHT22;7672;50.834;6.286;2024-03-06T02:33:19;6.70;99.90
15143;DHT22;7672;50.834;6.286;2024-03-06T02:35:46;6.70;99.90
15143;DHT22;7672;50.834;6.286;2024-03-06T02:38:33;6.30;99.90
15143;DHT22;7672;50.834;6.286;2024-03-06T02:41:03;6.70;99.90
15143;DHT22;7672;50.834;6.286;2024-03-06T02:43:34;6.60;99.90
15143;DHT22;7672;50.834;6.286;2024-03-06T02:46:01;6.80;99.90
15143;DHT22;7672;50.834;6.286;2024-03-06T02:48:29;6.60;99.90
15143;DHT22;7672;50.834;6.286;2024-03-06T02:50:57;6.60;99.90
15143;DHT22;7672;50.834;6.286;2024-03-06T02:53:25;6.70;99.90
15143;DHT22;7672;50.834;6.286;2024-03-06T02:55:53;6.80;99.90
15143;DHT22;7672;50.834;6.286;2024-03-06T02:58:22;6.70;99.90
15143;DHT22;7672;50.834;6.286;2024-03-06T03:00:50;6.70;99.90
15143;DHT22;7672;50.834;6.286;2024-03-06T03:03:20;6.50;99.90
15143;DHT22;7672;50.834;6.286;2024-03-06T03:05:50;6.80;99.90
15143;DHT22;7672;50.834;6.286;2024-03-06T03:08:20;6.60;99.90
15143;DHT22;7672;50.834;6.286;2024-03-06T03:10:48;6.40;99.90
15143;DHT22;7672;50.834;6.286;2024-03-06T03:13:22;6.50;99.90
15143;DHT22;7672;50.834;6.286;2024-03-06T03:15:58;6.60;99.90
15143;DHT22;7672;50.834;6.286;2024-03-06T03:18:42;6.40;99.90
15143;DHT22;7672;50.834;6.286;2024-03-06T03:21:09;6.70;99.90
15143;DHT22;7672;50.834;6.286;2024-03-06T03:23:36;6.80;99.90
15143;DHT22;7672;50.834;6.286;2024-03-06T03:26:13;6.40;99.90
15143;DHT22;7672;50.834;6.286;2024-03-06T03:28:49;6.40;99.90
15143;DHT22;7672;50.834;6.286;2024-03-06T03:31:16;6.40;99.90
15143;DHT22;7672;50.834;6.286;2024-03-06T03:33:43;6.40;99.90
15143;DHT22;7672;50.834;6.286;2024-03-06T03:36:10;6.40;99.90
15143;DHT22;7672;50.834;6.286;2024-03-06T03:38:38;6.40;99.90
15143;DHT22;7672;50.834;6.286;2024-03-06T03:41:09;6.40;99.90
15143;DHT22;7672;50.834;6.286;2024-03-06T03:43:41;6.30;99.90
15143;DHT22;7672;50.834;6.286;2024-03-06T03:46:08;6.30;99.90
15143;DHT22;7672;50.834;6.286;2024-03-06T03:48:36;6.30;99.90
15143;DHT22;7672;50.834;6.286;2024-03-06T03:51:04;6.30;99.90
15143;DHT22;7672;50.834;6.286;2024-03-06T03:53:34;6.40;99.90
15143;DHT22;7672;50.834;6.286;2024-03-06T03:56:02;6.70;99.90
15143;DHT22;7672;50.834;6.286;2024-03-06T03:58:30;6.30;99.90
15143;DHT22;7672;50.834;6.286;2024-03-06T04:00:59;6.50;99.90
15143;DHT22;7672;50.834;6.286;2024-03-06T04:03:26;6.30;99.90
15143;DHT22;7672;50.834;6.286;2024-03-06T04:05:53;6.40;99.90
15143;DHT22;7672;50.834;6.286;2024-03-06T04:08:23;6.80;99.90
15143;DHT22;7672;50.834;6.286;2024-03-06T04:11:19;5.60;99.90
15143;DHT22;7672;50.834;6.286;2024-03-06T04:14:32;6.20;99.90
15143;DHT22;7672;50.834;6.286;2024-03-06T04:17:31;6.40;99.90
15143;DHT22;7672;50.834;6.286;2024-03-06T04:20:23;6.20;99.90
15143;DHT22;7672;50.834;6.286;2024-03-06T04:23:21;6.10;99.90
15143;DHT22;7672;50.834;6.286;2024-03-06T04:25:55;6.10;99.90
15143;DHT22;7672;50.834;6.286;2024-03-06T04:28:31;5.90;99.90
15143;DHT22;7672;50.834;6.286;2024-03-06T04:31:18;6.10;99.90
15143;DHT22;7672;50.834;6.286;2024-03-06T04:33:51;6.20;99.90
15143;DHT22;7672;50.834;6.286;2024-03-06T04:36:18;6.20;99.90
15143;DHT22;7672;50.834;6.286;2024-03-06T04:38:45;6.50;99.90
15143;DHT22;7672;50.834;6.286;2024-03-06T04:41:13;6.50;99.90
15143;DHT22;7672;50.834;6.286;2024-03-06T04:43:41;6.00;99.90
15143;DHT22;7672;50.834;6.286;2024-03-06T04:46:12;6.30;99.90
15143;DHT22;7672;50.834;6.286;2024-03-06T04:48:41;6.00;99.90
15143;DHT22;7672;50.834;6.286;2024-03-06T04:51:08;6.10;99.90
15143;DHT22;7672;50.834;6.286;2024-03-06T04:53:36;6.00;99.90
15143;DHT22;7672;50.834;6.286;2024-03-06T04:56:03;6.00;99.90
15143;DHT22;7672;50.834;6.286;2024-03-06T04:58:31;6.00;99.90
15143;DHT22;7672;50.834;6.286;2024-03-06T05:01:19;6.30;99.90
15143;DHT22;7672;50.834;6.286;2024-03-06T05:03:46;6.40;99.90
15143;DHT22;7672;50.834;6.286;2024-03-06T05:06:31;6.30;99.90
15143;DHT22;7672;50.834;6.286;2024-03-06T05:09:16;6.00;99.90
15143;DHT22;7672;50.834;6.286;2024-03-06T05:12:01;6.00;99.90
15143;DHT22;7672;50.834;6.286;2024-03-06T05:14:46;6.00;99.90
15143;DHT22;7672;50.834;6.286;2024-03-06T05:17:31;6.00;99.90
15143;DHT22;7672;50.834;6.286;2024-03-06T05:20:16;5.90;99.90
15143;DHT22;7672;50.834;6.286;2024-03-06T05:23:01;6.20;99.90
15143;DHT22;7672;50.834;6.286;2024-03-06T05:25:45;5.90;99.90
15143;DHT22;7672;50.834;6.286;2024-03-06T05:28:30;5.90;99.90
15143;DHT22;7672;50.834;6.286;2024-03-06T05:31:19;5.90;99.90
15143;DHT22;7672;50.834;6.286;2024-03-06T05:34:04;5.90;99.90
15143;DHT22;7672;50.834;6.286;2024-03-06T05:36:50;5.90;99.90
15143;DHT22;7672;50.834;6.286;2024-03-06T05:39:35;5.90;99.90
15143;DHT22;7672;50.834;6.286;2024-03-06T05:42:20;5.80;99.90
15143;DHT22;7672;50.834;6.286;2024-03-06T05:45:05;5.80;99.90
15143;DHT22;7672;50.834;6.286;2024-03-06T05:47:54;5.80;99.90
15143;DHT22;7672;50.834;6.286;2024-03-06T05:50:40;6.10;99.90
15143;DHT22;7672;50.834;6.286;2024-03-06T05:53:27;5.80;99.90
15143;DHT22;7672;50.834;6.286;2024-03-06T05:56:48;5.70;99.90
15143;DHT22;7672;50.834;6.286;2024-03-06T06:00:42;5.70;99.90
15143;DHT22;7672;50.834;6.286;2024-03-06T06:03:22;5.90;99.90
15143;DHT22;7672;50.834;6.286;2024-03-06T06:05:58;5.60;99.90
15143;DHT22;7672;50.834;6.286;2024-03-06T06:08:26;5.70;99.90
15143;DHT22;7672;50.834;6.286;2024-03-06T06:10:53;6.10;99.90
15143;DHT22;7672;50.834;6.286;2024-03-06T06:13:31;5.60;99.90
15143;DHT22;7672;50.834;6.286;2024-03-06T06:16:18;5.50;99.90
15143;DHT22;7672;50.834;6.286;2024-03-06T06:18:45;5.80;99.90
15143;DHT22;7672;50.834;6.286;2024-03-06T06:21:12;5.90;99.90
15143;DHT22;7672;50.834;6.286;2024-03-06T06:23:39;5.70;99.90
15143;DHT22;7672;50.834;6.286;2024-03-06T06:26:10;6.00;99.90
15143;DHT22;7672;50.834;6.286;2024-03-06T06:28:41;5.70;99.90
15143;DHT22;7672;50.834;6.286;2024-03-06T06:31:09;5.60;99.90
15143;DHT22;7672;50.834;6.286;2024-03-06T06:33:36;5.70;99.90
15143;DHT22;7672;50.834;6.286;2024-03-06T06:36:03;5.90;99.90
15143;DHT22;7672;50.834;6.286;2024-03-06T06:38:30;5.80;99.90
15143;DHT22;7672;50.834;6.286;2024-03-06T06:40:57;5.80;99.90
15143;DHT22;7672;50.834;6.286;2024-03-06T06:43:24;5.80;99.90
15143;DHT22;7672;50.834;6.286;2024-03-06T06:45:51;6.10;99.90
15143;DHT22;7672;50.834;6.286;2024-03-06T06:48:20;5.90;99.90
15143;DHT22;7672;50.834;6.286;2024-03-06T06:50:47;6.00;99.90
15143;DHT22;7672;50.834;6.286;2024-03-06T06:53:14;6.10;99.90
15143;DHT22;7672;50.834;6.286;2024-03-06T06:55:42;6.10;99.90
15143;DHT22;7672;50.834;6.286;2024-03-06T06:58:09;6.20;99.90
15143;DHT22;7672;50.834;6.286;2024-03-06T07:00:36;6.30;99.90
15143;DHT22;7672;50.834;6.286;2024-03-06T07:03:04;6.80;99.90
15143;DHT22;7672;50.834;6.286;2024-03-06T07:05:31;6.50;99.90
15143;DHT22;7672;50.834;6.286;2024-03-06T07:07:59;6.80;99.90
15143;DHT22;7672;50.834;6.286;2024-03-06T07:10:26;7.10;99.90
15143;DHT22;7672;50.834;6.286;2024-03-06T07:12:54;7.50;99.90
15143;DHT22;7672;50.834;6.286;2024-03-06T07:15:26;8.00;99.90
15143;DHT22;7672;50.834;6.286;2024-03-06T07:17:54;8.60;99.90
15143;DHT22;7672;50.834;6.286;2024-03-06T07:20:21;9.20;99.90
15143;DHT22;7672;50.834;6.286;2024-03-06T07:22:48;9.80;99.90
15143;DHT22;7672;50.834;6.286;2024-03-06T07:25:17;10.40;99.90
15143;DHT22;7672;50.834;6.286;2024-03-06T07:27:44;11.10;99.90
15143;DHT22;7672;50.834;6.286;2024-03-06T07:30:11;11.70;99.90
15143;DHT22;7672;50.834;6.286;2024-03-06T07:32:40;12.30;99.90
15143;DHT22;7672;50.834;6.286;2024-03-06T07:35:08;12.70;99.90
15143;DHT22;7672;50.834;6.286;2024-03-06T07:37:35;13.10;99.90
15143;DHT22;7672;50.834;6.286;2024-03-06T07:40:03;13.50;99.90
15143;DHT22;7672;50.834;6.286;2024-03-06T07:42:31;13.60;99.90
15143;DHT22;7672;50.834;6.286;2024-03-06T07:45:00;14.10;99.90
15143;DHT22;7672;50.834;6.286;2024-03-06T07:47:27;14.80;99.90
15143;DHT22;7672;50.834;6.286;2024-03-06T07:49:54;15.00;99.90
15143;DHT22;7672;50.834;6.286;2024-03-06T07:52:21;15.20;99.90
15143;DHT22;7672;50.834;6.286;2024-03-06T07:54:49;15.90;99.90
15143;DHT22;7672;50.834;6.286;2024-03-06T07:57:16;16.00;99.90
15143;DHT22;7672;50.834;6.286;2024-03-06T07:59:45;16.50;99.90
15143;DHT22;7672;50.834;6.286;2024-03-06T08:02:12;17.00;99.90
15143;DHT22;7672;50.834;6.286;2024-03-06T08:04:39;17.30;99.90
15143;DHT22;7672;50.834;6.286;2024-03-06T08:07:06;17.60;99.90
15143;DHT22;7672;50.834;6.286;2024-03-06T08:09:33;18.10;99.90
15143;DHT22;7672;50.834;6.286;2024-03-06T08:12:00;18.60;99.90
15143;DHT22;7672;50.834;6.286;2024-03-06T08:14:27;19.30;99.90
15143;DHT22;7672;50.834;6.286;2024-03-06T08:16:54;19.60;99.90
15143;DHT22;7672;50.834;6.286;2024-03-06T08:19:22;20.40;99.90
15143;DHT22;7672;50.834;6.286;2024-03-06T08:21:51;20.50;99.90
15143;DHT22;7672;50.834;6.286;2024-03-06T08:24:18;21.00;99.90
15143;DHT22;7672;50.834;6.286;2024-03-06T08:26:45;21.30;99.90
15143;DHT22;7672;50.834;6.286;2024-03-06T08:29:15;21.60;99.90
15143;DHT22;7672;50.834;6.286;2024-03-06T08:31:42;22.00;99.90
15143;DHT22;7672;50.834;6.286;2024-03-06T08:34:09;22.40;99.90
15143;DHT22;7672;50.834;6.286;2024-03-06T08:36:36;22.80;99.90
15143;DHT22;7672;50.834;6.286;2024-03-06T08:39:03;23.10;99.90
15143;DHT22;7672;50.834;6.286;2024-03-06T08:41:39;23.50;99.90
15143;DHT22;7672;50.834;6.286;2024-03-06T08:45:25;23.70;99.90
15143;DHT22;7672;50.834;6.286;2024-03-06T08:48:21;24.20;99.90
15143;DHT22;7672;50.834;6.286;2024-03-06T08:55:33;24.90;99.90
15143;DHT22;7672;50.834;6.286;2024-03-06T08:58:37;25.50;99.90
15143;DHT22;7672;50.834;6.286;2024-03-06T09:01:38;25.80;99.90
15143;DHT22;7672;50.834;6.286;2024-03-06T09:04:12;26.20;99.90
15143;DHT22;7672;50.834;6.286;2024-03-06T09:07:08;26.40;99.90
15143;DHT22;7672;50.834;6.286;2024-03-06T09:09:53;26.70;99.90
15143;DHT22;7672;50.834;6.286;2024-03-06T09:12:20;27.10;99.90
15143;DHT22;7672;50.834;6.286;2024-03-06T09:14:47;27.10;99.90
15143;DHT22;7672;50.834;6.286;2024-03-06T09:17:15;27.40;99.90
15143;DHT22;7672;50.834;6.286;2024-03-06T09:20:06;27.50;99.90
15143;DHT22;7672;50.834;6.286;2024-03-06T09:22:40;27.60;99.90
15143;DHT22;7672;50.834;6.286;2024-03-06T09:25:09;27.60;99.90
15143;DHT22;7672;50.834;6.286;2024-03-06T09:27:37;27.60;99.90
15143;DHT22;7672;50.834;6.286;2024-03-06T09:30:04;27.50;99.90
15143;DHT22;7672;50.834;6.286;2024-03-06T09:32:32;27.50;99.90
15143;DHT22;7672;50.834;6.286;2024-03-06T09:34:59;27.50;99.90
15143;DHT22;7672;50.834;6.286;2024-03-06T09:37:27;27.50;99.90
15143;DHT22;7672;50.834;6.286;2024-03-06T09:39:55;27.50;99.90
15143;DHT22;7672;50.834;6.286;2024-03-06T09:42:23;27.50;99.90
15143;DHT22;7672;50.834;6.286;2024-03-06T09:44:51;27.60;99.90
15143;DHT22;7672;50.834;6.286;2024-03-06T09:47:22;27.70;99.90
15143;DHT22;7672;50.834;6.286;2024-03-06T09:49:52;27.80;99.80
15143;DHT22;7672;50.834;6.286;2024-03-06T09:52:22;28.00;99.80
15143;DHT22;7672;50.834;6.286;2024-03-06T09:54:54;28.10;99.30
15143;DHT22;7672;50.834;6.286;2024-03-06T09:57:22;28.40;98.80
15143;DHT22;7672;50.834;6.286;2024-03-06T09:59:49;28.50;99.40
15143;DHT22;7672;50.834;6.286;2024-03-06T10:02:28;28.60;98.40
15143;DHT22;7672;50.834;6.286;2024-03-06T10:05:00;28.70;97.10
15143;DHT22;7672;50.834;6.286;2024-03-06T10:07:27;28.60;97.90
15143;DHT22;7672;50.834;6.286;2024-03-06T10:09:55;28.50;97.10
15143;DHT22;7672;50.834;6.286;2024-03-06T10:12:22;28.40;96.10
15143;DHT22;7672;50.834;6.286;2024-03-06T10:14:51;28.40;96.50
15143;DHT22;7672;50.834;6.286;2024-03-06T10:17:21;28.30;96.40
15143;DHT22;7672;50.834;6.286;2024-03-06T10:19:50;28.30;95.20
15143;DHT22;7672;50.834;6.286;2024-03-06T10:22:19;28.20;96.60
15143;DHT22;7672;50.834;6.286;2024-03-06T10:24:47;28.10;96.00
15143;DHT22;7672;50.834;6.286;2024-03-06T10:27:15;28.20;96.20
15143;DHT22;7672;50.834;6.286;2024-03-06T10:29:46;28.10;97.10
15143;DHT22;7672;50.834;6.286;2024-03-06T10:32:16;28.20;95.70
15143;DHT22;7672;50.834;6.286;2024-03-06T10:34:47;28.10;94.70
15143;DHT22;7672;50.834;6.286;2024-03-06T10:37:16;28.20;95.20
15143;DHT22;7672;50.834;6.286;2024-03-06T10:39:43;28.00;94.40
15143;DHT22;7672;50.834;6.286;2024-03-06T10:42:13;28.00;94.60
15143;DHT22;7672;50.834;6.286;2024-03-06T10:44:51;27.90;94.10
15143;DHT22;7672;50.834;6.286;2024-03-06T10:47:21;27.90;92.90
15143;DHT22;7672;50.834;6.286;2024-03-06T10:49:50;27.90;94.20
15143;DHT22;7672;50.834;6.286;2024-03-06T10:52:18;27.90;94.90
15143;DHT22;7672;50.834;6.286;2024-03-06T10:54:48;27.90;94.00
15143;DHT22;7672;50.834;6.286;2024-03-06T10:57:15;28.10;93.20
15143;DHT22;7672;50.834;6.286;2024-03-06T10:59:43;27.80;93.10
15143;DHT22;7672;50.834;6.286;2024-03-06T11:02:11;27.80;93.20
15143;DHT22;7672;50.834;6.286;2024-03-06T11:04:40;27.50;93.30
15143;DHT22;7672;50.834;6.286;2024-03-06T11:07:08;27.30;92.30
15143;DHT22;7672;50.834;6.286;2024-03-06T11:09:40;26.60;91.90
15143;DHT22;7672;50.834;6.286;2024-03-06T11:12:08;26.10;93.10
15143;DHT22;7672;50.834;6.286;2024-03-06T11:14:39;25.40;92.90
15143;DHT22;7672;50.834;6.286;2024-03-06T11:17:09;24.90;92.50
15143;DHT22;7672;50.834;6.286;2024-03-06T11:28:19;23.60;94.70
15143;DHT22;7672;50.834;6.286;2024-03-06T11:31:00;23.40;95.20
15143;DHT22;7672;50.834;6.286;2024-03-06T11:33:35;23.30;94.70
15143;DHT22;7672;50.834;6.286;2024-03-06T11:36:26;22.90;96.10
15143;DHT22;7672;50.834;6.286;2024-03-06T11:44:18;22.70;96.60
15143;DHT22;7672;50.834;6.286;2024-03-06T11:49:34;22.70;96.80
15143;DHT22;7672;50.834;6.286;2024-03-06T11:52:07;22.80;97.20
15143;DHT22;7672;50.834;6.286;2024-03-06T11:54:36;22.60;96.50
15143;DHT22;7672;50.834;6.286;2024-03-06T11:57:04;22.50;97.80
15143;DHT22;7672;50.834;6.286;2024-03-06T11:59:36;22.50;97.90
15143;DHT22;7672;50.834;6.286;2024-03-06T12:02:06;22.20;96.10
15143;DHT22;7672;50.834;6.286;2024-03-06T12:04:35;21.90;96.90
15143;DHT22;7672;50.834;6.286;2024-03-06T12:07:06;21.60;97.20
15143;DHT22;7672;50.834;6.286;2024-03-06T12:09:36;21.30;97.20
15143;DHT22;7672;50.834;6.286;2024-03-06T12:12:09;20.90;97.40
15143;DHT22;7672;50.834;6.286;2024-03-06T12:14:38;20.60;98.30
15143;DHT22;7672;50.834;6.286;2024-03-06T12:17:12;20.20;98.60
15143;DHT22;7672;50.834;6.286;2024-03-06T12:19:44;20.00;98.80
15143;DHT22;7672;50.834;6.286;2024-03-06T12:22:12;19.60;99.60
15143;DHT22;7672;50.834;6.286;2024-03-06T12:24:41;19.30;99.90
15143;DHT22;7672;50.834;6.286;2024-03-06T12:27:08;18.80;99.90
15143;DHT22;7672;50.834;6.286;2024-03-06T12:29:36;18.70;99.90
15143;DHT22;7672;50.834;6.286;2024-03-06T12:32:15;18.40;99.90
15143;DHT22;7672;50.834;6.286;2024-03-06T12:34:44;18.20;99.90
15143;DHT22;7672;50.834;6.286;2024-03-06T12:37:11;17.90;99.90
15143;DHT22;7672;50.834;6.286;2024-03-06T12:39:39;17.70;99.90
15143;DHT22;7672;50.834;6.286;2024-03-06T12:42:09;17.50;99.90
15143;DHT22;7672;50.834;6.286;2024-03-06T12:44:38;17.40;99.90
15143;DHT22;7672;50.834;6.286;2024-03-06T12:47:06;17.30;99.90
15143;DHT22;7672;50.834;6.286;2024-03-06T12:49:33;17.30;99.90
15143;DHT22;7672;50.834;6.286;2024-03-06T12:52:00;17.30;99.90
15143;DHT22;7672;50.834;6.286;2024-03-06T12:54:31;17.30;99.90
15143;DHT22;7672;50.834;6.286;2024-03-06T12:56:58;17.30;99.90
15143;DHT22;7672;50.834;6.286;2024-03-06T12:59:26;17.20;99.90
15143;DHT22;7672;50.834;6.286;2024-03-06T13:01:53;17.20;99.90
15143;DHT22;7672;50.834;6.286;2024-03-06T13:04:21;17.10;99.90
15143;DHT22;7672;50.834;6.286;2024-03-06T13:06:48;17.00;99.90
15143;DHT22;7672;50.834;6.286;2024-03-06T13:09:15;16.90;99.90
15143;DHT22;7672;50.834;6.286;2024-03-06T13:11:42;16.90;99.90
15143;DHT22;7672;50.834;6.286;2024-03-06T13:14:09;16.90;99.90
15143;DHT22;7672;50.834;6.286;2024-03-06T13:16:39;16.90;99.90
15143;DHT22;7672;50.834;6.286;2024-03-06T13:19:06;16.80;99.90
15143;DHT22;7672;50.834;6.286;2024-03-06T13:21:34;16.80;99.90
15143;DHT22;7672;50.834;6.286;2024-03-06T13:24:02;16.80;99.90
15143;DHT22;7672;50.834;6.286;2024-03-06T13:26:30;16.80;99.90
15143;DHT22;7672;50.834;6.286;2024-03-06T13:28:57;16.80;99.90
15143;DHT22;7672;50.834;6.286;2024-03-06T13:31:24;16.90;99.90
15143;DHT22;7672;50.834;6.286;2024-03-06T13:33:51;16.90;99.90
15143;DHT22;7672;50.834;6.286;2024-03-06T13:36:18;16.90;99.90
15143;DHT22;7672;50.834;6.286;2024-03-06T13:38:45;17.00;99.90
15143;DHT22;7672;50.834;6.286;2024-03-06T13:41:12;17.00;99.90
15143;DHT22;7672;50.834;6.286;2024-03-06T13:43:39;17.30;99.90
15143;DHT22;7672;50.834;6.286;2024-03-06T13:46:07;17.00;99.90
15143;DHT22;7672;50.834;6.286;2024-03-06T13:48:34;17.00;99.90
15143;DHT22;7672;50.834;6.286;2024-03-06T13:51:01;17.00;99.90
15143;DHT22;7672;50.834;6.286;2024-03-06T13:53:28;17.00;99.90
15143;DHT22;7672;50.834;6.286;2024-03-06T13:55:55;16.90;99.90
15143;DHT22;7672;50.834;6.286;2024-03-06T13:58:22;16.90;99.90
15143;DHT22;7672;50.834;6.286;2024-03-06T14:00:50;16.90;99.90
15143;DHT22;7672;50.834;6.286;2024-03-06T14:03:17;16.80;99.90
15143;DHT22;7672;50.834;6.286;2024-03-06T14:05:44;16.80;99.90
15143;DHT22;7672;50.834;6.286;2024-03-06T14:08:12;16.80;99.90
15143;DHT22;7672;50.834;6.286;2024-03-06T14:10:39;16.80;99.90
15143;DHT22;7672;50.834;6.286;2024-03-06T14:13:07;16.80;99.90
15143;DHT22;7672;50.834;6.286;2024-03-06T14:15:35;16.90;99.90
15143;DHT22;7672;50.834;6.286;2024-03-06T14:18:05;16.90;99.90
15143;DHT22;7672;50.834;6.286;2024-03-06T14:20:33;16.90;99.90
15143;DHT22;7672;50.834;6.286;2024-03-06T14:23:00;16.90;99.90
15143;DHT22;7672;50.834;6.286;2024-03-06T14:25:27;16.80;99.90
15143;DHT22;7672;50.834;6.286;2024-03-06T14:28:09;16.80;99.90
15143;DHT22;7672;50.834;6.286;2024-03-06T14:30:37;16.70;99.90
15143;DHT22;7672;50.834;6.286;2024-03-06T14:33:05;16.60;99.90
15143;DHT22;7672;50.834;6.286;2024-03-06T14:35:33;16.50;99.90
15143;DHT22;7672;50.834;6.286;2024-03-06T14:38:00;16.40;99.90
15143;DHT22;7672;50.834;6.286;2024-03-06T14:40:27;16.40;99.90
15143;DHT22;7672;50.834;6.286;2024-03-06T14:42:54;16.30;99.90
15143;DHT22;7672;50.834;6.286;2024-03-06T14:45:21;16.20;99.90
15143;DHT22;7672;50.834;6.286;2024-03-06T14:47:50;16.30;99.90
15143;DHT22;7672;50.834;6.286;2024-03-06T14:50:17;16.10;99.90
15143;DHT22;7672;50.834;6.286;2024-03-06T14:52:45;16.10;99.90
15143;DHT22;7672;50.834;6.286;2024-03-06T14:55:12;16.20;99.90
15143;DHT22;7672;50.834;6.286;2024-03-06T14:57:39;16.00;99.90
15143;DHT22;7672;50.834;6.286;2024-03-06T15:00:07;16.00;99.90
15143;DHT22;7672;50.834;6.286;2024-03-06T15:02:35;16.00;99.90
15143;DHT22;7672;50.834;6.286;2024-03-06T15:05:03;16.10;99.90
15143;DHT22;7672;50.834;6.286;2024-03-06T15:07:31;16.10;99.90
15143;DHT22;7672;50.834;6.286;2024-03-06T15:09:58;16.10;99.90
15143;DHT22;7672;50.834;6.286;2024-03-06T15:12:25;16.10;99.90
15143;DHT22;7672;50.834;6.286;2024-03-06T15:14:52;16.00;99.90
15143;DHT22;7672;50.834;6.286;2024-03-06T15:17:24;16.00;99.90
15143;DHT22;7672;50.834;6.286;2024-03-06T15:19:54;16.00;99.90
15143;DHT22;7672;50.834;6.286;2024-03-06T15:22:21;15.90;99.90
15143;DHT22;7672;50.834;6.286;2024-03-06T15:24:48;15.90;99.90
15143;DHT22;7672;50.834;6.286;2024-03-06T15:27:18;15.90;99.90
15143;DHT22;7672;50.834;6.286;2024-03-06T15:29:45;15.80;99.90
15143;DHT22;7672;50.834;6.286;2024-03-06T15:32:13;15.80;99.90
15143;DHT22;7672;50.834;6.286;2024-03-06T15:34:40;15.70;99.90
15143;DHT22;7672;50.834;6.286;2024-03-06T15:37:07;15.70;99.90
15143;DHT22;7672;50.834;6.286;2024-03-06T15:39:34;15.60;99.90
15143;DHT22;7672;50.834;6.286;2024-03-06T15:42:01;15.90;99.90
15143;DHT22;7672;50.834;6.286;2024-03-06T15:44:28;15.50;99.90
15143;DHT22;7672;50.834;6.286;2024-03-06T15:46:55;15.50;99.90
15143;DHT22;7672;50.834;6.286;2024-03-06T15:49:35;15.50;99.90
15143;DHT22;7672;50.834;6.286;2024-03-06T15:52:02;15.40;99.90
15143;DHT22;7672;50.834;6.286;2024-03-06T15:54:30;15.40;99.90
15143;DHT22;7672;50.834;6.286;2024-03-06T15:56:57;15.30;99.90
15143;DHT22;7672;50.834;6.286;2024-03-06T15:59:24;15.40;99.90
15143;DHT22;7672;50.834;6.286;2024-03-06T16:01:52;15.30;99.90
15143;DHT22;7672;50.834;6.286;2024-03-06T16:04:19;15.20;99.90
15143;DHT22;7672;50.834;6.286;2024-03-06T16:06:46;15.20;99.90
15143;DHT22;7672;50.834;6.286;2024-03-06T16:09:13;15.10;99.90
15143;DHT22;7672;50.834;6.286;2024-03-06T16:11:41;15.10;99.90
15143;DHT22;7672;50.834;6.286;2024-03-06T16:14:09;15.10;99.90
15143;DHT22;7672;50.834;6.286;2024-03-06T16:16:39;15.00;99.90
15143;DHT22;7672;50.834;6.286;2024-03-06T16:19:07;15.00;99.90
15143;DHT22;7672;50.834;6.286;2024-03-06T16:21:34;14.90;99.90
15143;DHT22;7672;50.834;6.286;2024-03-06T16:24:01;14.90;99.90
15143;DHT22;7672;50.834;6.286;2024-03-06T16:26:34;14.80;99.90
15143;DHT22;7672;50.834;6.286;2024-03-06T16:29:01;14.80;99.90
15143;DHT22;7672;50.834;6.286;2024-03-06T16:31:29;14.70;99.90
15143;DHT22;7672;50.834;6.286;2024-03-06T16:33:56;14.70;99.90
15143;DHT22;7672;50.834;6.286;2024-03-06T16:36:23;14.60;99.90
15143;DHT22;7672;50.834;6.286;2024-03-06T16:38:50;14.60;99.90